createdAt,value
2022-12-01T00:01:31.634Z,102200.59
2022-12-01T00:04:04.867Z,102192.03
2022-12-01T00:06:39.028Z,102193.56
2022-12-01T00:09:29.367Z,102194.69
2022-12-01T00:12:02.119Z,102197.41
2022-12-01T00:14:35.011Z,102195.44
2022-12-01T00:17:07.889Z,102184.91
2022-12-01T00:19:40.650Z,102189.44
2022-12-01T00:22:14.787Z,102181.38
2022-12-01T00:24:47.720Z,102181.50
2022-12-01T00:27:20.507Z,102184.06
2022-12-01T00:29:53.404Z,102178.03
2022-12-01T00:32:26.169Z,102189.13
2022-12-01T00:34:59.097Z,102190.22
2022-12-01T00:37:34.408Z,102184.03
2022-12-01T00:40:09.089Z,102184.03
2022-12-01T00:42:41.942Z,102188.28
2022-12-01T00:45:14.938Z,102186.69
2022-12-01T00:47:47.770Z,102162.91
2022-12-01T00:50:20.731Z,102183.50
2022-12-01T00:52:54.858Z,102189.75
2022-12-01T00:55:27.705Z,102182.13
2022-12-01T00:58:00.619Z,102194.63
2022-12-01T01:00:33.394Z,102192.09
2022-12-01T01:03:07.042Z,102194.69
2022-12-01T01:05:41.314Z,102180.16
2022-12-01T01:08:16.054Z,102195.81
2022-12-01T01:10:49.531Z,102193.94
2022-12-01T01:13:22.341Z,102202.84
2022-12-01T01:15:59.668Z,102197.41
2022-12-01T01:18:32.874Z,102203.44
2022-12-01T01:21:08.766Z,102204.78
2022-12-01T01:23:45.018Z,102209.22
2022-12-01T01:26:19.708Z,102202.06
2022-12-01T01:28:53.758Z,102205.66
2022-12-01T01:31:27.946Z,102208.25
2022-12-01T01:34:01.017Z,102217.00
2022-12-01T01:36:33.778Z,102215.28
2022-12-01T01:39:07.900Z,102210.00
2022-12-01T01:41:40.673Z,102216.09
2022-12-01T01:44:56.189Z,102213.38
2022-12-01T01:47:33.872Z,102214.38
2022-12-01T01:50:11.456Z,102225.75
2022-12-01T01:52:47.363Z,102217.66
2022-12-01T01:55:21.670Z,102218.03
2022-12-01T01:57:54.445Z,102218.75
2022-12-01T02:00:27.668Z,102222.97
2022-12-01T02:03:05.044Z,102217.00
2022-12-01T02:05:40.620Z,102205.56
2022-12-01T02:08:13.477Z,102206.13
2022-12-01T02:10:59.691Z,102211.03
2022-12-01T02:13:37.847Z,102216.03
2022-12-01T02:16:15.493Z,102203.94
2022-12-01T02:18:55.335Z,102218.13
2022-12-01T02:21:42.193Z,102208.25
2022-12-01T02:24:49.563Z,102212.69
2022-12-01T02:27:37.441Z,102200.66
2022-12-01T02:30:12.399Z,102215.22
2022-12-01T02:33:03.424Z,102213.81
2022-12-01T02:35:47.448Z,102210.22
2022-12-01T02:38:27.208Z,102211.03
2022-12-01T02:41:07.246Z,102194.56
2022-12-01T02:43:46.956Z,102195.38
2022-12-01T02:46:26.420Z,102200.34
2022-12-01T02:49:05.320Z,102203.06
2022-12-01T02:51:41.031Z,102208.31
2022-12-01T02:54:16.060Z,102192.34
2022-12-01T02:56:53.004Z,102203.84
2022-12-01T02:59:26.010Z,102204.78
2022-12-01T03:02:09.256Z,102203.75
2022-12-01T03:05:00.786Z,102213.59
2022-12-01T03:07:47.912Z,102211.72
2022-12-01T03:10:27.544Z,102222.31
2022-12-01T03:13:10.883Z,102218.75
2022-12-01T03:15:55.139Z,102214.22
2022-12-01T03:18:33.875Z,102214.38
2022-12-01T03:21:13.298Z,102210.00
2022-12-01T03:23:49.587Z,102214.53
2022-12-01T03:26:25.260Z,102207.34
2022-12-01T03:29:02.633Z,102206.13
2022-12-01T03:31:40.835Z,102206.41
2022-12-01T03:34:18.958Z,102200.84
2022-12-01T03:36:56.968Z,102206.09
2022-12-01T03:39:33.277Z,102213.19
2022-12-01T03:42:14.894Z,102209.22
2022-12-01T03:44:52.206Z,102209.06
2022-12-01T03:47:29.267Z,102207.22
2022-12-01T03:50:02.293Z,102209.13
2022-12-01T03:52:46.643Z,102220.59
2022-12-01T03:55:23.582Z,102212.56
2022-12-01T03:58:02.588Z,102222.88
2022-12-01T04:00:36.672Z,102221.44
2022-12-01T04:03:09.971Z,102219.72
2022-12-01T04:05:42.883Z,102222.88
2022-12-01T04:08:17.072Z,102226.63
2022-12-01T04:10:49.883Z,102210.09
2022-12-01T04:13:23.114Z,102221.16
2022-12-01T04:15:57.226Z,102214.72
2022-12-01T04:18:30.096Z,102228.22
2022-12-01T04:21:02.892Z,102227.09
2022-12-01T04:23:54.382Z,102221.50
2022-12-01T04:26:27.754Z,102222.88
2022-12-01T04:29:00.944Z,102227.63
2022-12-01T04:31:33.840Z,102201.59
2022-12-01T04:34:06.948Z,102223.97
2022-12-01T04:36:39.802Z,102218.75
2022-12-01T04:39:13.955Z,102218.75
2022-12-01T04:41:47.011Z,102209.72
2022-12-01T04:44:19.778Z,102222.81
2022-12-01T04:46:53.938Z,102219.13
2022-12-01T04:49:27.323Z,102212.69
2022-12-01T04:52:00.325Z,102213.31
2022-12-01T04:54:34.536Z,102219.53
2022-12-01T04:57:07.643Z,102206.13
2022-12-01T04:59:40.419Z,102210.41
2022-12-01T05:02:13.268Z,102207.28
2022-12-01T05:04:48.086Z,102207.81
2022-12-01T05:07:20.896Z,102207.91
2022-12-01T05:09:55.560Z,102208.84
2022-12-01T05:12:28.378Z,102195.50
2022-12-01T05:15:01.099Z,102222.50
2022-12-01T05:17:36.918Z,102210.03
2022-12-01T05:20:33.645Z,102202.34
2022-12-01T05:23:07.585Z,102172.56
2022-12-01T05:25:42.419Z,102188.84
2022-12-01T05:28:15.222Z,102204.44
2022-12-01T05:30:48.999Z,102215.47
2022-12-01T05:33:22.242Z,102196.66
2022-12-01T05:35:55.482Z,102219.22
2022-12-01T05:38:28.583Z,102216.31
2022-12-01T05:41:02.683Z,102220.75
2022-12-01T05:43:35.480Z,102198.38
2022-12-01T05:46:08.912Z,102220.59
2022-12-01T05:48:41.802Z,102220.06
2022-12-01T05:51:17.256Z,102227.00
2022-12-01T05:53:50.053Z,102220.06
2022-12-01T05:56:24.185Z,102230.44
2022-12-01T05:58:57.043Z,102232.53
2022-12-01T06:01:29.820Z,102222.78
2022-12-01T06:04:03.070Z,102226.44
2022-12-01T06:06:35.940Z,102231.56
2022-12-01T06:09:08.993Z,102236.88
2022-12-01T06:11:43.116Z,102237.81
2022-12-01T06:14:15.916Z,102228.94
2022-12-01T06:16:48.732Z,102237.09
2022-12-01T06:19:21.625Z,102233.38
2022-12-01T06:21:54.421Z,102232.72
2022-12-01T06:24:27.306Z,102233.28
2022-12-01T06:27:01.484Z,102209.13
2022-12-01T06:29:37.776Z,102242.16
2022-12-01T06:32:14.667Z,102240.31
2022-12-01T06:34:47.528Z,102249.91
2022-12-01T06:37:20.361Z,102250.91
2022-12-01T06:39:53.176Z,102251.56
2022-12-01T06:42:31.504Z,102247.19
2022-12-01T06:45:04.422Z,102245.47
2022-12-01T06:47:37.369Z,102245.72
2022-12-01T06:50:12.204Z,102252.63
2022-12-01T06:52:45.016Z,102244.84
2022-12-01T06:55:18.087Z,102247.34
2022-12-01T06:57:52.399Z,102249.78
2022-12-01T07:00:25.287Z,102256.22
2022-12-01T07:02:58.339Z,102247.34
2022-12-01T07:05:31.234Z,102229.22
2022-12-01T07:08:04.468Z,102209.63
2022-12-01T07:10:37.271Z,102257.94
2022-12-01T07:13:11.703Z,102257.81
2022-12-01T07:15:44.497Z,102263.78
2022-12-01T07:18:17.256Z,102265.09
2022-12-01T07:20:50.143Z,102265.03
2022-12-01T07:23:22.957Z,102259.28
2022-12-01T07:25:59.968Z,102267.91
2022-12-01T07:28:34.601Z,102249.66
2022-12-01T07:31:10.426Z,102251.28
2022-12-01T07:33:43.694Z,102267.09
2022-12-01T07:36:16.945Z,102259.78
2022-12-01T07:38:49.745Z,102263.22
2022-12-01T07:41:22.807Z,102265.81
2022-12-01T07:43:57.773Z,102266.63
2022-12-01T07:46:30.949Z,102260.72
2022-12-01T07:49:07.631Z,102279.28
2022-12-01T07:51:40.362Z,102264.41
2022-12-01T07:54:14.190Z,102275.56
2022-12-01T07:56:47.133Z,102268.75
2022-12-01T07:59:21.234Z,102284.25
2022-12-01T08:01:54.036Z,102286.97
2022-12-01T08:04:29.270Z,102285.22
2022-12-01T08:07:04.895Z,102286.03
2022-12-01T08:09:37.680Z,102258.53
2022-12-01T08:12:10.412Z,102290.41
2022-12-01T08:14:44.626Z,102250.28
2022-12-01T08:17:17.478Z,102287.16
2022-12-01T08:19:50.722Z,102285.38
2022-12-01T08:22:23.665Z,102257.59
2022-12-01T08:24:56.469Z,102283.94
2022-12-01T08:27:29.276Z,102259.94
2022-12-01T08:30:03.642Z,102306.91
2022-12-01T08:32:36.475Z,102300.81
2022-12-01T08:35:10.045Z,102309.78
2022-12-01T08:37:42.946Z,102309.56
2022-12-01T08:40:16.206Z,102274.78
2022-12-01T08:42:49.076Z,102305.19
2022-12-01T08:45:23.550Z,102307.03
2022-12-01T08:47:58.687Z,102313.44
2022-12-01T08:50:31.469Z,102301.16
2022-12-01T08:53:04.380Z,102312.09
2022-12-01T08:55:37.344Z,102310.94
2022-12-01T08:58:10.092Z,102310.03
2022-12-01T09:00:44.185Z,102299.50
2022-12-01T09:03:16.983Z,102289.31
2022-12-01T09:05:49.912Z,102311.53
2022-12-01T09:08:35.694Z,102315.31
2022-12-01T09:11:11.087Z,102322.06
2022-12-01T09:13:49.910Z,102287.22
2022-12-01T09:16:27.368Z,102322.47
2022-12-01T09:19:00.249Z,102311.53
2022-12-01T09:21:34.718Z,102306.13
2022-12-01T09:24:08.881Z,102311.94
2022-12-01T09:26:41.917Z,102295.53
2022-12-01T09:29:16.572Z,102316.47
2022-12-01T09:31:50.903Z,102318.53
2022-12-01T09:34:25.048Z,102320.03
2022-12-01T09:36:59.010Z,102320.25
2022-12-01T09:39:31.926Z,102310.03
2022-12-01T09:42:09.520Z,102322.59
2022-12-01T09:44:47.500Z,102324.09
2022-12-01T09:47:26.453Z,102313.53
2022-12-01T09:50:02.985Z,102317.81
2022-12-01T09:52:43.824Z,102311.75
2022-12-01T09:55:18.552Z,102329.03
2022-12-01T09:57:53.882Z,102322.81
2022-12-01T10:00:29.131Z,102310.94
2022-12-01T10:03:14.662Z,102317.53
2022-12-01T10:06:24.989Z,102287.09
2022-12-01T10:08:51.509Z,102313.75
2022-12-01T10:11:31.801Z,102312.88
2022-12-01T10:14:05.861Z,102308.22
2022-12-01T10:16:45.770Z,102289.25
2022-12-01T10:19:29.630Z,102291.81
2022-12-01T10:22:26.693Z,102314.53
2022-12-01T10:25:07.819Z,102313.03
2022-12-01T10:27:48.639Z,102253.38
2022-12-01T10:30:23.617Z,102309.16
2022-12-01T10:32:58.106Z,102307.38
2022-12-01T10:35:36.896Z,102298.25
2022-12-01T10:38:16.575Z,102296.63
2022-12-01T10:40:50.816Z,102271.69
2022-12-01T10:43:29.929Z,102289.75
2022-12-01T10:46:12.236Z,102290.31
2022-12-01T10:48:55.195Z,102259.16
2022-12-01T10:51:30.047Z,102286.78
2022-12-01T10:54:11.421Z,102291.81
2022-12-01T10:56:47.675Z,102272.97
2022-12-01T10:59:27.702Z,102281.22
2022-12-01T11:02:02.592Z,102277.16
2022-12-01T11:04:44.828Z,102272.69
2022-12-01T11:07:22.902Z,102290.34
2022-12-01T11:10:17.193Z,102285.28
2022-12-01T11:12:56.937Z,102279.31
2022-12-01T11:15:33.233Z,102277.53
2022-12-01T11:18:08.506Z,102291.22
2022-12-01T11:20:41.968Z,102253.75
2022-12-01T11:23:26.284Z,102234.22
2022-12-01T11:26:04.217Z,102274.69
2022-12-01T11:28:38.573Z,102284.06
2022-12-01T11:31:12.413Z,102282.47
2022-12-01T11:33:49.466Z,102281.59
2022-12-01T11:36:26.648Z,102279.75
2022-12-01T11:39:02.707Z,102286.53
2022-12-01T11:41:40.588Z,102289.44
2022-12-01T11:47:23.314Z,102280.13
2022-12-01T11:49:59.092Z,102231.88
2022-12-01T11:52:33.412Z,102284.19
2022-12-01T11:55:24.806Z,102275.94
2022-12-01T11:58:00.873Z,102254.97
2022-12-01T12:00:44.403Z,102266.06
2022-12-01T12:03:26.503Z,102251.88
2022-12-01T12:06:39.078Z,102235.38
2022-12-01T12:09:25.154Z,102271.56
2022-12-01T12:12:08.777Z,102271.97
2022-12-01T12:14:51.906Z,102248.63
2022-12-01T12:17:45.212Z,102263.78
2022-12-01T12:20:37.282Z,102268.22
2022-12-01T12:23:27.033Z,102271.72
2022-12-01T12:26:08.652Z,102259.28
2022-12-01T12:29:13.505Z,102265.56
2022-12-01T12:31:59.079Z,102253.84
2022-12-01T12:34:42.032Z,102258.25
2022-12-01T12:37:24.701Z,102201.72
2022-12-01T12:40:31.690Z,102250.03
2022-12-01T12:43:20.609Z,102258.44
2022-12-01T12:46:07.216Z,102245.84
2022-12-01T12:49:19.397Z,102249.56
2022-12-01T12:51:57.284Z,102231.75
2022-12-01T12:54:35.552Z,102250.28
2022-12-01T12:57:19.442Z,102242.38
2022-12-01T12:59:58.185Z,102224.00
2022-12-01T13:02:40.117Z,102245.59
2022-12-01T13:05:20.238Z,102200.59
2022-12-01T13:07:59.050Z,102233.56
2022-12-01T13:10:38.019Z,102236.28
2022-12-01T13:13:24.141Z,102242.63
2022-12-01T13:15:59.663Z,102197.63
2022-12-01T13:18:41.968Z,102205.19
2022-12-01T13:21:18.688Z,102229.75
2022-12-01T13:23:53.390Z,102232.16
2022-12-01T13:26:26.410Z,102218.34
2022-12-01T13:28:59.788Z,102216.88
2022-12-01T13:31:46.141Z,102221.91
2022-12-01T13:34:27.330Z,102229.81
2022-12-01T13:37:00.239Z,102217.34
2022-12-01T13:39:36.134Z,102188.03
2022-12-01T13:42:20.774Z,102210.72
2022-12-01T13:44:56.900Z,102218.13
2022-12-01T13:47:40.478Z,102217.72
2022-12-01T13:50:55.376Z,102220.25
2022-12-01T13:53:31.471Z,102213.53
2022-12-01T13:56:27.303Z,102209.22
2022-12-01T13:58:59.927Z,102214.47
2022-12-01T14:01:47.449Z,102209.56
2022-12-01T14:04:31.556Z,102215.13
2022-12-01T14:07:29.503Z,102172.75
2022-12-01T14:10:30.974Z,102216.91
2022-12-01T14:13:06.607Z,102207.97
2022-12-01T14:15:43.088Z,102193.72
2022-12-01T14:18:41.348Z,102215.47
2022-12-01T14:21:14.797Z,102216.41
2022-12-01T14:24:04.250Z,102220.38
2022-12-01T14:26:46.342Z,102221.50
2022-12-01T14:29:31.777Z,102219.94
2022-12-01T14:32:25.395Z,102220.38
2022-12-01T14:35:04.306Z,102214.78
2022-12-01T14:37:43.524Z,102209.94
2022-12-01T14:40:29.244Z,102227.25
2022-12-01T14:43:20.801Z,102223.09
2022-12-01T14:46:05.517Z,102224.03
2022-12-01T14:48:42.977Z,102225.53
2022-12-01T14:51:26.894Z,102222.69
2022-12-01T14:54:02.718Z,102222.91
2022-12-01T14:56:37.416Z,102216.16
2022-12-01T14:59:19.603Z,102208.44
2022-12-01T15:01:54.720Z,102218.97
2022-12-01T15:04:27.530Z,102224.13
2022-12-01T15:07:00.377Z,102227.78
2022-12-01T15:09:34.869Z,102224.28
2022-12-01T15:12:25.829Z,102229.81
2022-12-01T15:14:59.833Z,102219.13
2022-12-01T15:17:36.863Z,102229.00
2022-12-01T15:20:28.102Z,102220.44
2022-12-01T15:23:03.088Z,102241.41
2022-12-01T15:25:36.953Z,102247.63
2022-12-01T15:28:15.641Z,102217.25
2022-12-01T15:30:50.899Z,102247.47
2022-12-01T15:33:31.638Z,102239.53
2022-12-01T15:36:08.679Z,102172.19
2022-12-01T15:38:43.212Z,102226.38
2022-12-01T15:41:29.708Z,102221.94
2022-12-01T15:44:05.393Z,102220.22
2022-12-01T15:46:38.166Z,102236.97
2022-12-01T15:49:19.130Z,102233.50
2022-12-01T15:51:53.012Z,102225.50
2022-12-01T15:54:27.323Z,102232.34
2022-12-01T15:57:00.934Z,102230.53
2022-12-01T15:59:39.295Z,102209.84
2022-12-01T16:02:25.563Z,102205.78
2022-12-01T16:05:03.690Z,102217.50
2022-12-01T16:08:12.145Z,102208.00
2022-12-01T16:10:33.751Z,102209.22
2022-12-01T16:13:40.253Z,102209.06
2022-12-01T16:16:30.839Z,102210.63
2022-12-01T16:19:21.673Z,102217.50
2022-12-01T16:21:58.015Z,102204.31
2022-12-01T16:24:35.527Z,102204.03
2022-12-01T16:27:18.379Z,102208.22
2022-12-01T16:29:53.814Z,102222.53
2022-12-01T16:32:34.538Z,102224.03
2022-12-01T16:35:25.072Z,102217.50
2022-12-01T16:37:59.188Z,102224.19
2022-12-01T16:40:32.557Z,102208.47
2022-12-01T16:43:05.407Z,102230.53
2022-12-01T16:45:38.289Z,102226.09
2022-12-01T16:48:12.953Z,102224.81
2022-12-01T16:50:46.457Z,102226.75
2022-12-01T16:53:20.201Z,102231.25
2022-12-01T16:55:55.738Z,102222.88
2022-12-01T16:58:29.050Z,102231.16
2022-12-01T17:01:01.944Z,102234.91
2022-12-01T17:03:38.165Z,102231.69
2022-12-01T17:06:17.019Z,102206.69
2022-12-01T17:08:49.958Z,102240.34
2022-12-01T17:11:22.830Z,102246.56
2022-12-01T17:13:56.054Z,102239.56
2022-12-01T17:16:29.157Z,102231.63
2022-12-01T17:19:03.582Z,102241.97
2022-12-01T17:21:36.485Z,102236.84
2022-12-01T17:24:09.803Z,102247.28
2022-12-01T17:26:45.550Z,102245.44
2022-12-01T17:29:18.332Z,102244.28
2022-12-01T17:31:51.427Z,102245.78
2022-12-01T17:34:25.744Z,102259.81
2022-12-01T17:36:59.030Z,102260.53
2022-12-01T17:39:31.797Z,102263.03
2022-12-01T17:42:05.308Z,102267.47
2022-12-01T17:44:38.183Z,102259.59
2022-12-01T17:47:11.367Z,102268.47
2022-12-01T17:49:46.764Z,102266.75
2022-12-01T17:52:22.166Z,102268.69
2022-12-01T17:54:58.198Z,102259.94
2022-12-01T17:57:31.219Z,102262.22
2022-12-01T18:00:06.142Z,102255.44
2022-12-01T18:02:41.868Z,102254.63
2022-12-01T18:05:16.292Z,102260.63
2022-12-01T18:07:49.523Z,102262.56
2022-12-01T18:10:22.626Z,102269.72
2022-12-01T18:12:55.577Z,102269.72
2022-12-01T18:15:34.349Z,102269.59
2022-12-01T18:18:07.686Z,102259.84
2022-12-01T18:20:43.456Z,102269.25
2022-12-01T18:23:16.361Z,102267.66
2022-12-01T18:25:49.215Z,102259.84
2022-12-01T18:28:21.956Z,102262.47
2022-12-01T18:30:54.749Z,102256.94
2022-12-01T18:33:27.554Z,102265.00
2022-12-01T18:36:01.854Z,102256.94
2022-12-01T18:38:34.625Z,102267.59
2022-12-01T18:41:07.837Z,102270.28
2022-12-01T18:43:40.773Z,102256.59
2022-12-01T18:46:14.680Z,102259.59
2022-12-01T18:48:48.813Z,102265.09
2022-12-01T18:51:22.982Z,102252.88
2022-12-01T18:53:56.271Z,102260.59
2022-12-01T18:56:29.705Z,102263.44
2022-12-01T18:59:04.809Z,102251.13
2022-12-01T19:01:42.457Z,102268.53
2022-12-01T19:04:17.369Z,102268.53
2022-12-01T19:06:52.033Z,102266.41
2022-12-01T19:09:25.021Z,102256.88
2022-12-01T19:12:00.081Z,102269.19
2022-12-01T19:14:33.115Z,102262.16
2022-12-01T19:17:06.276Z,102268.38
2022-12-01T19:19:39.410Z,102258.72
2022-12-01T19:22:13.806Z,102259.59
2022-12-01T19:24:50.163Z,102266.66
2022-12-01T19:27:23.770Z,102255.34
2022-12-01T19:29:56.691Z,102256.28
2022-12-01T19:32:31.815Z,102255.34
2022-12-01T19:35:05.437Z,102258.81
2022-12-01T19:37:39.767Z,102241.41
2022-12-01T19:40:14.200Z,102250.88
2022-12-01T19:42:47.475Z,102247.03
2022-12-01T19:45:20.433Z,102250.38
2022-12-01T19:47:54.016Z,102247.88
2022-12-01T19:50:46.327Z,102247.69
2022-12-01T19:53:20.522Z,102252.88
2022-12-01T19:55:53.410Z,102251.25
2022-12-01T19:58:26.401Z,102252.59
2022-12-01T20:01:04.457Z,102242.25
2022-12-01T20:03:38.304Z,102253.75
2022-12-01T20:06:12.910Z,102252.00
2022-12-01T20:08:47.431Z,102251.91
2022-12-01T20:11:20.360Z,102240.00
2022-12-01T20:13:53.860Z,102255.56
2022-12-01T20:16:28.603Z,102260.22
2022-12-01T20:19:02.679Z,102256.78
2022-12-01T20:21:39.118Z,102251.50
2022-12-01T20:24:15.933Z,102253.19
2022-12-01T20:26:50.612Z,102261.16
2022-12-01T20:29:26.269Z,102251.38
2022-12-01T20:32:02.821Z,102258.31
2022-12-01T20:34:37.271Z,102268.84
2022-12-01T20:37:10.868Z,102255.88
2022-12-01T20:39:45.238Z,102254.47
2022-12-01T20:42:19.356Z,102245.56
2022-12-01T20:44:52.544Z,102261.41
2022-12-01T20:47:25.945Z,102259.69
2022-12-01T20:49:59.893Z,102251.75
2022-12-01T20:52:32.619Z,102256.00
2022-12-01T20:55:08.070Z,102242.16
2022-12-01T20:57:40.951Z,102244.94
2022-12-01T21:00:15.662Z,102256.13
2022-12-01T21:02:49.002Z,102251.16
2022-12-01T21:05:21.940Z,102244.09
2022-12-01T21:07:55.777Z,102245.84
2022-12-01T21:10:30.193Z,102251.13
2022-12-01T21:13:35.467Z,102252.94
2022-12-01T21:16:14.613Z,102233.50
2022-12-01T21:18:52.406Z,102249.28
2022-12-01T21:21:27.554Z,102244.69
2022-12-01T21:24:11.873Z,102229.31
2022-12-01T21:26:51.489Z,102230.19
2022-12-01T21:29:26.866Z,102228.75
2022-12-01T21:32:01.547Z,102231.09
2022-12-01T21:34:36.274Z,102231.16
2022-12-01T21:37:15.169Z,102229.63
2022-12-01T21:39:50.798Z,102227.84
2022-12-01T21:42:27.761Z,102240.94
2022-12-01T21:45:01.768Z,102227.34
2022-12-01T21:47:36.046Z,102227.78
2022-12-01T21:50:17.534Z,102229.47
2022-12-01T21:52:51.824Z,102225.88
2022-12-01T21:55:36.838Z,102227.03
2022-12-01T21:58:24.789Z,102222.06
2022-12-01T22:01:00.132Z,102218.44
2022-12-01T22:03:34.916Z,102216.09
2022-12-01T22:06:31.745Z,102224.72
2022-12-01T22:09:19.781Z,102212.78
2022-12-01T22:11:54.886Z,102215.75
2022-12-01T22:14:33.416Z,102215.03
2022-12-01T22:17:17.325Z,102204.97
2022-12-01T22:19:56.830Z,102223.38
2022-12-01T22:22:32.411Z,102213.59
2022-12-01T22:25:21.024Z,102216.16
2022-12-01T22:27:54.428Z,102213.03
2022-12-01T22:30:28.918Z,102215.63
2022-12-01T22:33:04.022Z,102203.53
2022-12-01T22:35:42.919Z,102208.81
2022-12-01T22:38:32.226Z,102198.25
2022-12-01T22:41:07.394Z,102203.25
2022-12-01T22:43:46.662Z,102208.81
2022-12-01T22:46:26.852Z,102205.41
2022-12-01T22:49:01.979Z,102198.34
2022-12-01T22:51:40.499Z,102203.44
2022-12-01T22:54:35.655Z,102186.94
2022-12-01T22:57:19.398Z,102175.38
2022-12-01T22:59:53.022Z,102188.59
2022-12-01T23:02:31.948Z,102197.97
2022-12-01T23:05:19.997Z,102200.84
2022-12-01T23:07:53.951Z,102205.28
2022-12-01T23:10:31.298Z,102205.56
2022-12-01T23:13:26.773Z,102187.47
2022-12-01T23:16:02.591Z,102201.56
2022-12-01T23:18:36.783Z,102199.13
2022-12-01T23:21:09.532Z,102190.16
2022-12-01T23:23:42.356Z,102193.66
2022-12-01T23:26:15.198Z,102195.28
2022-12-01T23:28:47.930Z,102194.56
2022-12-01T23:31:20.728Z,102189.81
2022-12-01T23:33:54.939Z,102190.97
2022-12-01T23:36:29.539Z,102186.53
2022-12-01T23:39:05.404Z,102177.94
2022-12-01T23:41:40.384Z,102181.59
2022-12-01T23:44:16.619Z,102179.53
2022-12-01T23:46:52.849Z,102163.31
2022-12-01T23:49:30.823Z,102168.34
2022-12-01T23:52:04.888Z,102153.63
2022-12-01T23:54:39.777Z,102171.56
2022-12-01T23:57:19.302Z,102175.91
2022-12-01T23:59:55.733Z,102161.16
